createdAt,value
2022-12-31T00:00:35.464Z,985.38
2022-12-31T00:01:37.208Z,985.33
2022-12-31T00:02:39.096Z,985.37
2022-12-31T00:03:40.689Z,985.33
2022-12-31T00:04:42.419Z,985.37
2022-12-31T00:05:44.136Z,985.32
2022-12-31T00:06:45.886Z,985.28
2022-12-31T00:07:47.665Z,985.29
2022-12-31T00:08:49.334Z,985.25
2022-12-31T00:09:51.063Z,985.28
2022-12-31T00:10:52.806Z,985.33
2022-12-31T00:11:54.562Z,985.32
2022-12-31T00:12:56.308Z,985.19
2022-12-31T00:13:58.006Z,985.27
2022-12-31T00:14:59.720Z,985.29
2022-12-31T00:16:05.420Z,985.36
2022-12-31T00:17:03.309Z,985.42
2022-12-31T00:18:04.964Z,985.4
2022-12-31T00:19:06.642Z,985.36
2022-12-31T00:20:08.377Z,985.38
2022-12-31T00:21:10.170Z,985.39
2022-12-31T00:22:11.865Z,985.46
2022-12-31T00:23:13.598Z,985.5
2022-12-31T00:24:15.369Z,985.46
2022-12-31T00:25:17.063Z,985.5
2022-12-31T00:26:18.784Z,985.41
2022-12-31T00:27:20.528Z,985.43
2022-12-31T00:28:22.246Z,985.43
2022-12-31T00:29:24.011Z,985.39
2022-12-31T00:30:25.733Z,985.45
2022-12-31T00:31:27.488Z,985.42
2022-12-31T00:32:29.190Z,985.46
2022-12-31T00:33:30.932Z,985.4
2022-12-31T00:34:32.701Z,985.43
2022-12-31T00:35:34.378Z,985.47
2022-12-31T00:36:36.184Z,985.45
2022-12-31T00:37:37.893Z,985.43
2022-12-31T00:38:39.594Z,985.53
2022-12-31T00:39:41.347Z,985.46
2022-12-31T00:40:43.076Z,985.46
2022-12-31T00:41:44.791Z,985.5
2022-12-31T00:42:46.561Z,985.49
2022-12-31T00:43:48.311Z,985.56
2022-12-31T00:44:49.991Z,985.5
2022-12-31T00:45:51.896Z,985.52
2022-12-31T00:46:53.511Z,985.54
2022-12-31T00:47:55.225Z,985.51
2022-12-31T00:48:56.961Z,985.42
2022-12-31T00:49:58.702Z,985.46
2022-12-31T00:51:00.404Z,985.54
2022-12-31T00:52:02.185Z,985.53
2022-12-31T00:53:03.876Z,985.53
2022-12-31T00:54:05.653Z,985.48
2022-12-31T00:55:07.335Z,985.53
2022-12-31T00:56:09.132Z,985.58
2022-12-31T00:57:10.821Z,985.57
2022-12-31T00:58:12.545Z,985.55
2022-12-31T00:59:14.264Z,985.53
2022-12-31T01:00:16.000Z,985.64
2022-12-31T01:01:17.823Z,985.65
2022-12-31T01:02:19.620Z,985.66
2022-12-31T01:03:21.237Z,985.65
2022-12-31T01:04:22.920Z,985.61
2022-12-31T01:05:24.686Z,985.69
2022-12-31T01:06:26.398Z,985.66
2022-12-31T01:07:28.172Z,985.69
2022-12-31T01:08:29.855Z,985.68
2022-12-31T01:09:31.622Z,985.7
2022-12-31T01:10:33.329Z,985.78
2022-12-31T01:11:35.079Z,985.75
2022-12-31T01:12:36.830Z,985.85
2022-12-31T01:13:38.515Z,985.81
2022-12-31T01:14:40.263Z,985.82
2022-12-31T01:15:42.010Z,985.76
2022-12-31T01:16:43.778Z,985.76
2022-12-31T01:17:45.481Z,985.83
2022-12-31T01:18:47.252Z,985.85
2022-12-31T01:19:49.674Z,985.99
2022-12-31T01:20:51.357Z,985.88
2022-12-31T01:21:53.113Z,985.9
2022-12-31T01:22:54.855Z,985.95
2022-12-31T01:23:56.572Z,985.83
2022-12-31T01:24:58.305Z,985.87
2022-12-31T01:26:00.041Z,985.91
2022-12-31T01:27:01.811Z,985.95
2022-12-31T01:28:03.580Z,985.86
2022-12-31T01:29:05.279Z,985.98
2022-12-31T01:30:07.005Z,985.92
2022-12-31T01:31:08.788Z,985.99
2022-12-31T01:32:10.485Z,985.98
2022-12-31T01:33:12.207Z,986.07
2022-12-31T01:34:13.947Z,986.01
2022-12-31T01:35:15.637Z,986.03
2022-12-31T01:36:23.388Z,986.02
2022-12-31T01:37:19.170Z,985.99
2022-12-31T01:38:20.831Z,986.08
2022-12-31T01:39:22.621Z,985.97
2022-12-31T01:40:24.307Z,985.99
2022-12-31T01:41:26.032Z,986.1
2022-12-31T01:42:27.807Z,986.03
2022-12-31T01:43:29.516Z,986.11
2022-12-31T01:44:31.245Z,986.14
2022-12-31T01:45:33.022Z,986.1
2022-12-31T01:46:34.780Z,986.05
2022-12-31T01:47:36.432Z,986.1
2022-12-31T01:48:38.187Z,986.1
2022-12-31T01:49:39.950Z,986.07
2022-12-31T01:50:41.679Z,986.12
2022-12-31T01:51:43.382Z,986.11
2022-12-31T01:52:45.102Z,986.18
2022-12-31T01:53:46.878Z,986.13
2022-12-31T01:54:48.579Z,986.17
2022-12-31T01:55:50.316Z,986.18
2022-12-31T01:56:52.028Z,986.23
2022-12-31T01:57:53.821Z,986.29
2022-12-31T01:58:55.509Z,986.19
2022-12-31T01:59:57.246Z,986.17
2022-12-31T02:00:59.064Z,986.12
2022-12-31T02:02:00.826Z,986.19
2022-12-31T02:03:02.468Z,986.12
2022-12-31T02:04:04.180Z,986.04
2022-12-31T02:05:05.930Z,986.02
2022-12-31T02:06:07.689Z,986.08
2022-12-31T02:07:09.385Z,986.1
2022-12-31T02:08:11.118Z,986.08
2022-12-31T02:09:12.866Z,986.01
2022-12-31T02:10:14.597Z,986.08
2022-12-31T02:11:16.307Z,986.06
2022-12-31T02:12:18.079Z,985.94
2022-12-31T02:13:25.075Z,986.01
2022-12-31T02:14:26.666Z,986.04
2022-12-31T02:15:28.353Z,986.02
2022-12-31T02:16:30.124Z,986.06
2022-12-31T02:17:31.839Z,986.02
2022-12-31T02:18:33.584Z,986
2022-12-31T02:19:35.283Z,986.02
2022-12-31T02:20:37.035Z,986
2022-12-31T02:21:38.747Z,986.06
2022-12-31T02:22:40.505Z,986.06
2022-12-31T02:23:42.239Z,986.08
2022-12-31T02:24:43.949Z,986.05
2022-12-31T02:25:45.685Z,986.06
2022-12-31T02:26:47.459Z,986.07
2022-12-31T02:27:49.192Z,985.97
2022-12-31T02:28:50.885Z,986.02
2022-12-31T02:29:52.617Z,986.03
2022-12-31T02:30:54.464Z,986
2022-12-31T02:31:56.107Z,986.04
2022-12-31T02:32:57.815Z,986
2022-12-31T02:33:59.549Z,986.02
2022-12-31T02:35:01.330Z,986.1
2022-12-31T02:36:03.052Z,986.11
2022-12-31T02:37:04.781Z,986.11
2022-12-31T02:38:06.526Z,986.17
2022-12-31T02:39:08.266Z,986.03
2022-12-31T02:40:09.992Z,986.11
2022-12-31T02:41:11.694Z,986.04
2022-12-31T02:42:13.427Z,986.11
2022-12-31T02:43:15.161Z,986.14
2022-12-31T02:44:16.945Z,986.19
2022-12-31T02:45:18.645Z,986.15
2022-12-31T02:46:20.427Z,986.2
2022-12-31T02:47:22.107Z,986.15
2022-12-31T02:48:23.842Z,986.22
2022-12-31T02:49:25.589Z,986.2
2022-12-31T02:50:27.327Z,986.12
2022-12-31T02:51:29.057Z,986.15
2022-12-31T02:52:30.768Z,986.14
2022-12-31T02:53:32.521Z,986.23
2022-12-31T02:54:34.258Z,986.34
2022-12-31T02:55:35.986Z,986.34
2022-12-31T02:56:37.751Z,986.3
2022-12-31T02:57:39.447Z,986.31
2022-12-31T02:58:41.167Z,986.33
2022-12-31T02:59:42.924Z,986.3
2022-12-31T03:00:44.749Z,986.27
2022-12-31T03:01:46.486Z,986.29
2022-12-31T03:02:48.196Z,986.3
2022-12-31T03:03:49.935Z,986.27
2022-12-31T03:04:51.613Z,986.22
2022-12-31T03:05:53.334Z,986.23
2022-12-31T03:06:55.063Z,986.27
2022-12-31T03:07:56.816Z,986.25
2022-12-31T03:08:58.531Z,986.28
2022-12-31T03:10:00.275Z,986.2
2022-12-31T03:11:02.026Z,986.25
2022-12-31T03:12:03.750Z,986.25
2022-12-31T03:13:05.517Z,986.23
2022-12-31T03:14:07.213Z,986.27
2022-12-31T03:15:08.961Z,986.3
2022-12-31T03:16:10.684Z,986.24
2022-12-31T03:17:12.416Z,986.31
2022-12-31T03:18:14.122Z,986.22
2022-12-31T03:19:15.866Z,986.23
2022-12-31T03:20:17.608Z,986.27
2022-12-31T03:21:19.319Z,986.23
2022-12-31T03:22:21.051Z,986.32
2022-12-31T03:23:22.785Z,986.29
2022-12-31T03:24:51.184Z,986.27
2022-12-31T03:25:51.899Z,986.26
2022-12-31T03:26:53.638Z,986.2
2022-12-31T03:27:55.398Z,986.19
2022-12-31T03:28:57.139Z,986.16
2022-12-31T03:29:58.827Z,986.22
2022-12-31T03:31:00.645Z,986.26
2022-12-31T03:32:02.332Z,986.27
2022-12-31T03:33:04.067Z,986.29
2022-12-31T03:34:05.794Z,986.24
2022-12-31T03:35:07.533Z,986.35
2022-12-31T03:36:09.297Z,986.37
2022-12-31T03:37:11.001Z,986.38
2022-12-31T03:38:12.748Z,986.31
2022-12-31T03:39:14.475Z,986.29
2022-12-31T03:40:16.225Z,986.36
2022-12-31T03:41:17.920Z,986.37
2022-12-31T03:42:19.682Z,986.32
2022-12-31T03:43:21.474Z,986.39
2022-12-31T03:44:23.153Z,986.5
2022-12-31T03:45:24.862Z,986.45
2022-12-31T03:46:26.599Z,986.47
2022-12-31T03:47:28.324Z,986.52
2022-12-31T03:48:30.033Z,986.54
2022-12-31T03:49:31.794Z,986.64
2022-12-31T03:50:33.535Z,986.57
2022-12-31T03:51:35.301Z,986.6
2022-12-31T03:52:37.053Z,986.6
2022-12-31T03:53:38.730Z,986.64
2022-12-31T03:54:40.463Z,986.57
2022-12-31T03:55:42.205Z,986.56
2022-12-31T03:56:43.903Z,986.6
2022-12-31T03:57:45.661Z,986.59
2022-12-31T03:58:47.407Z,986.58
2022-12-31T03:59:49.129Z,986.61
2022-12-31T04:00:50.955Z,986.64
2022-12-31T04:01:52.676Z,986.6
2022-12-31T04:02:54.375Z,986.54
2022-12-31T04:03:56.048Z,986.62
2022-12-31T04:04:57.796Z,986.61
2022-12-31T04:05:59.523Z,986.55
2022-12-31T04:07:01.289Z,986.71
2022-12-31T04:08:03.032Z,986.65
2022-12-31T04:09:04.724Z,986.61
2022-12-31T04:10:06.475Z,986.67
2022-12-31T04:11:08.184Z,986.59
2022-12-31T04:12:09.965Z,986.67
2022-12-31T04:13:11.649Z,986.71
2022-12-31T04:14:13.391Z,986.72
2022-12-31T04:15:15.168Z,986.79
2022-12-31T04:16:16.955Z,986.75
2022-12-31T04:17:18.579Z,986.78
2022-12-31T04:18:20.317Z,986.8
2022-12-31T04:19:22.060Z,986.8
2022-12-31T04:20:23.800Z,986.78
2022-12-31T04:21:30.092Z,986.8
2022-12-31T04:22:27.277Z,986.78
2022-12-31T04:23:28.967Z,986.81
2022-12-31T04:24:30.714Z,986.76
2022-12-31T04:25:32.455Z,986.76
2022-12-31T04:26:34.188Z,986.83
2022-12-31T04:27:35.984Z,986.73
2022-12-31T04:28:37.682Z,986.73
2022-12-31T04:29:39.396Z,986.72
2022-12-31T04:30:41.122Z,986.8
2022-12-31T04:31:42.889Z,986.71
2022-12-31T04:32:44.640Z,986.74
2022-12-31T04:33:46.327Z,986.74
2022-12-31T04:34:48.077Z,986.74
2022-12-31T04:35:49.798Z,986.77
2022-12-31T04:36:51.533Z,986.75
2022-12-31T04:37:53.271Z,986.75
2022-12-31T04:38:55.012Z,986.79
2022-12-31T04:40:01.899Z,986.81
2022-12-31T04:40:58.467Z,986.71
2022-12-31T04:42:00.247Z,986.71
2022-12-31T04:43:01.960Z,986.62
2022-12-31T04:44:03.691Z,986.66
2022-12-31T04:45:05.397Z,986.64
2022-12-31T04:46:07.206Z,986.63
2022-12-31T04:47:08.967Z,986.66
2022-12-31T04:48:10.608Z,986.66
2022-12-31T04:49:12.340Z,986.66
2022-12-31T04:50:14.113Z,986.78
2022-12-31T04:51:15.802Z,986.77
2022-12-31T04:52:17.540Z,986.65
2022-12-31T04:53:19.348Z,986.76
2022-12-31T04:54:21.004Z,986.78
2022-12-31T04:55:22.751Z,986.82
2022-12-31T04:56:24.479Z,986.86
2022-12-31T04:57:26.244Z,986.84
2022-12-31T04:58:27.969Z,986.8
2022-12-31T04:59:29.677Z,986.91
2022-12-31T05:00:31.407Z,986.88
2022-12-31T05:01:33.408Z,987.03
2022-12-31T05:02:35.122Z,986.88
2022-12-31T05:03:36.592Z,986.92
2022-12-31T05:04:38.404Z,987.02
2022-12-31T05:05:40.090Z,986.93
2022-12-31T05:06:41.813Z,986.95
2022-12-31T05:07:43.567Z,986.92
2022-12-31T05:08:45.300Z,986.93
2022-12-31T05:09:47.026Z,986.97
2022-12-31T05:10:48.750Z,986.97
2022-12-31T05:11:50.472Z,986.99
2022-12-31T05:12:52.247Z,986.97
2022-12-31T05:13:53.935Z,987.03
2022-12-31T05:14:55.669Z,987
2022-12-31T05:15:57.419Z,987.04
2022-12-31T05:16:59.202Z,987.14
2022-12-31T05:18:00.880Z,987.13
2022-12-31T05:19:02.693Z,987.06
2022-12-31T05:20:04.345Z,987.1
2022-12-31T05:21:06.116Z,987.15
2022-12-31T05:22:07.842Z,987.2
2022-12-31T05:23:09.553Z,987.18
2022-12-31T05:24:11.325Z,987.18
2022-12-31T05:25:13.028Z,987.24
2022-12-31T05:26:14.744Z,987.19
2022-12-31T05:27:16.515Z,987.23
2022-12-31T05:28:18.253Z,987.17
2022-12-31T05:29:19.977Z,987.12
2022-12-31T05:30:21.679Z,987.17
2022-12-31T05:31:23.416Z,987.05
2022-12-31T05:32:25.154Z,987.11
2022-12-31T05:33:26.895Z,987.17
2022-12-31T05:34:28.623Z,987.09
2022-12-31T05:35:30.356Z,986.98
2022-12-31T05:36:32.126Z,986.98
2022-12-31T05:37:33.851Z,986.98
2022-12-31T05:38:35.561Z,987.09
2022-12-31T05:39:37.287Z,987.05
2022-12-31T05:40:39.069Z,987.05
2022-12-31T05:41:40.887Z,987.16
2022-12-31T05:42:42.497Z,987.11
2022-12-31T05:43:44.282Z,987.13
2022-12-31T05:44:46.013Z,987.16
2022-12-31T05:45:47.724Z,987.11
2022-12-31T05:46:49.429Z,987.02
2022-12-31T05:47:51.168Z,987.04
2022-12-31T05:48:52.951Z,987.13
2022-12-31T05:49:54.667Z,987.15
2022-12-31T05:50:56.399Z,987.05
2022-12-31T05:51:58.163Z,986.98
2022-12-31T05:52:59.836Z,987.07
2022-12-31T05:54:01.592Z,987.06
2022-12-31T05:55:03.289Z,987.06
2022-12-31T05:56:05.029Z,987.12
2022-12-31T05:57:06.867Z,987.07
2022-12-31T05:58:08.546Z,987.14
2022-12-31T05:59:10.228Z,987.14
2022-12-31T06:00:11.998Z,987.18
2022-12-31T06:01:13.777Z,987.13
2022-12-31T06:02:15.576Z,987.19
2022-12-31T06:03:17.293Z,987.21
2022-12-31T06:04:18.903Z,987.18
2022-12-31T06:05:25.835Z,987.17
2022-12-31T06:06:22.385Z,987.18
2022-12-31T06:07:24.100Z,987.14
2022-12-31T06:08:25.875Z,987.19
2022-12-31T06:09:27.576Z,987.13
2022-12-31T06:10:29.315Z,987.19
2022-12-31T06:11:31.051Z,987.25
2022-12-31T06:12:32.778Z,987.23
2022-12-31T06:13:34.533Z,987.2
2022-12-31T06:14:39.624Z,987.28
2022-12-31T06:15:38.075Z,987.26
2022-12-31T06:16:39.723Z,987.29
2022-12-31T06:17:41.459Z,987.45
2022-12-31T06:18:43.175Z,987.37
2022-12-31T06:19:44.917Z,987.42
2022-12-31T06:20:46.672Z,987.44
2022-12-31T06:21:48.421Z,987.46
2022-12-31T06:22:50.141Z,987.43
2022-12-31T06:23:51.877Z,987.55
2022-12-31T06:24:53.577Z,987.52
2022-12-31T06:25:55.310Z,987.45
2022-12-31T06:26:57.079Z,987.42
2022-12-31T06:27:58.796Z,987.49
2022-12-31T06:29:00.526Z,987.49
2022-12-31T06:30:02.306Z,987.54
2022-12-31T06:31:04.052Z,987.5
2022-12-31T06:32:05.707Z,987.49
2022-12-31T06:33:07.453Z,987.55
2022-12-31T06:34:09.179Z,987.49
2022-12-31T06:35:10.916Z,987.51
2022-12-31T06:36:12.697Z,987.57
2022-12-31T06:37:14.371Z,987.62
2022-12-31T06:38:16.147Z,987.61
2022-12-31T06:39:17.849Z,987.59
2022-12-31T06:40:19.608Z,987.54
2022-12-31T06:41:21.340Z,987.63
2022-12-31T06:42:23.051Z,987.61
2022-12-31T06:43:24.777Z,987.67
2022-12-31T06:44:26.551Z,987.56
2022-12-31T06:45:28.309Z,987.7
2022-12-31T06:46:30.042Z,987.63
2022-12-31T06:47:31.755Z,987.62
2022-12-31T06:48:33.459Z,987.64
2022-12-31T06:49:35.189Z,987.66
2022-12-31T06:50:36.941Z,987.61
2022-12-31T06:51:38.686Z,987.61
2022-12-31T06:52:40.433Z,987.62
2022-12-31T06:53:42.123Z,987.62
2022-12-31T06:54:43.892Z,987.65
2022-12-31T06:55:45.595Z,987.71
2022-12-31T06:56:47.372Z,987.71
2022-12-31T06:57:49.096Z,987.63
2022-12-31T06:58:50.812Z,987.69
2022-12-31T06:59:52.524Z,987.73
2022-12-31T07:00:54.271Z,987.64
2022-12-31T07:01:56.073Z,987.79
2022-12-31T07:02:57.808Z,987.76
2022-12-31T07:03:59.495Z,987.67
2022-12-31T07:05:01.194Z,987.69
2022-12-31T07:06:02.932Z,987.69
2022-12-31T07:07:04.691Z,987.75
2022-12-31T07:08:06.421Z,987.69
2022-12-31T07:09:08.169Z,987.81
2022-12-31T07:10:09.887Z,987.78
2022-12-31T07:11:11.678Z,987.72
2022-12-31T07:12:13.398Z,987.68
2022-12-31T07:13:15.105Z,987.85
2022-12-31T07:14:16.840Z,987.87
2022-12-31T07:15:18.603Z,987.87
2022-12-31T07:16:20.403Z,987.96
2022-12-31T07:17:22.022Z,987.99
2022-12-31T07:18:23.775Z,988.04
2022-12-31T07:19:25.512Z,988.06
2022-12-31T07:20:27.289Z,988.02
2022-12-31T07:21:28.977Z,988.1
2022-12-31T07:22:30.769Z,988.21
2022-12-31T07:23:32.425Z,988.15
2022-12-31T07:24:34.160Z,988.13
2022-12-31T07:25:35.887Z,988.12
2022-12-31T07:26:37.655Z,988.15
2022-12-31T07:27:39.405Z,988.15
2022-12-31T07:28:41.098Z,988.18
2022-12-31T07:29:42.878Z,988.14
2022-12-31T07:30:44.565Z,988.16
2022-12-31T07:31:46.391Z,988.12
2022-12-31T07:32:48.037Z,988.13
2022-12-31T07:33:49.770Z,988.13
2022-12-31T07:34:51.511Z,988.13
2022-12-31T07:35:53.221Z,988.05
2022-12-31T07:36:54.952Z,988.05
2022-12-31T07:37:56.735Z,988.02
2022-12-31T07:38:58.460Z,988.06
2022-12-31T07:40:00.207Z,988.1
2022-12-31T07:41:07.363Z,988.14
2022-12-31T07:42:03.613Z,988.14
2022-12-31T07:43:05.385Z,988.15
2022-12-31T07:44:07.102Z,988.14
2022-12-31T07:45:08.868Z,988.15
2022-12-31T07:46:10.656Z,988.16
2022-12-31T07:47:12.327Z,988.22
2022-12-31T07:48:14.025Z,988.17
2022-12-31T07:49:15.797Z,988.21
2022-12-31T07:50:17.524Z,988.24
2022-12-31T07:52:28.296Z,988.32
2022-12-31T07:53:53.692Z,988.3
2022-12-31T07:54:55.423Z,988.25
2022-12-31T07:55:57.188Z,988.29
2022-12-31T07:56:58.930Z,988.29
2022-12-31T07:58:00.710Z,988.33
2022-12-31T07:59:02.441Z,988.35
2022-12-31T08:00:04.205Z,988.34
2022-12-31T08:01:07.361Z,988.43
2022-12-31T08:02:07.702Z,988.45
2022-12-31T08:03:09.423Z,988.41
2022-12-31T08:04:11.092Z,988.41
2022-12-31T08:05:12.833Z,988.42
2022-12-31T08:06:14.564Z,988.49
2022-12-31T08:07:16.226Z,988.57
2022-12-31T08:08:17.987Z,988.6
2022-12-31T08:09:19.696Z,988.62
2022-12-31T08:10:21.462Z,988.6
2022-12-31T08:11:23.204Z,988.59
2022-12-31T08:12:24.938Z,988.58
2022-12-31T08:13:26.690Z,988.54
2022-12-31T08:14:28.407Z,988.56
2022-12-31T08:15:30.833Z,988.56
2022-12-31T08:16:31.910Z,988.55
2022-12-31T08:17:33.599Z,988.55
2022-12-31T08:18:35.343Z,988.56
2022-12-31T08:19:37.108Z,988.55
2022-12-31T08:20:38.851Z,988.56
2022-12-31T08:21:40.545Z,988.55
2022-12-31T08:22:42.268Z,988.58
2022-12-31T08:23:43.993Z,988.62
2022-12-31T08:24:45.746Z,988.61
2022-12-31T08:25:47.503Z,988.61
2022-12-31T08:26:53.062Z,988.6
2022-12-31T08:27:50.936Z,988.58
2022-12-31T08:28:52.672Z,988.54
2022-12-31T08:29:54.437Z,988.53
2022-12-31T08:30:56.140Z,988.54
2022-12-31T08:31:57.889Z,988.54
2022-12-31T08:32:59.616Z,988.57
2022-12-31T08:34:05.764Z,988.56
2022-12-31T08:35:03.092Z,988.45
2022-12-31T08:36:04.835Z,988.54
2022-12-31T08:37:06.579Z,988.63
2022-12-31T08:38:08.268Z,988.63
2022-12-31T08:39:10.016Z,988.61
2022-12-31T08:40:11.748Z,988.56
2022-12-31T08:41:13.490Z,988.56
2022-12-31T08:42:15.186Z,988.56
2022-12-31T08:43:16.915Z,988.57
2022-12-31T08:44:18.672Z,988.57
2022-12-31T08:45:20.398Z,988.65
2022-12-31T08:46:22.139Z,988.69
2022-12-31T08:47:23.875Z,988.64
2022-12-31T08:48:25.581Z,988.68
2022-12-31T08:49:27.330Z,988.77
2022-12-31T08:50:29.090Z,988.72
2022-12-31T08:51:30.771Z,988.75
2022-12-31T08:52:32.479Z,988.78
2022-12-31T08:53:34.216Z,988.74
2022-12-31T08:54:35.969Z,988.72
2022-12-31T08:55:37.707Z,988.7
2022-12-31T08:56:39.434Z,988.74
2022-12-31T08:57:41.165Z,988.64
2022-12-31T08:58:42.905Z,988.68
2022-12-31T08:59:44.711Z,988.72
2022-12-31T09:00:46.483Z,988.66
2022-12-31T09:01:48.298Z,988.79
2022-12-31T09:02:49.895Z,988.8
2022-12-31T09:03:51.678Z,988.82
2022-12-31T09:04:53.415Z,988.9
2022-12-31T09:05:55.084Z,988.89
2022-12-31T09:06:56.817Z,988.92
2022-12-31T09:07:58.577Z,988.9
2022-12-31T09:09:00.263Z,988.86
2022-12-31T09:10:01.968Z,988.84
2022-12-31T09:11:03.731Z,988.82
2022-12-31T09:12:11.127Z,988.83
2022-12-31T09:13:12.278Z,988.95
2022-12-31T09:14:13.990Z,988.95
2022-12-31T09:15:15.737Z,988.85
2022-12-31T09:16:17.476Z,988.9
2022-12-31T09:17:19.173Z,988.95
2022-12-31T09:18:34.730Z,988.96
2022-12-31T09:19:38.108Z,988.96
2022-12-31T09:20:44.332Z,988.98
2022-12-31T09:21:41.580Z,989.05
2022-12-31T09:22:43.333Z,989.02
2022-12-31T09:23:45.006Z,989.02
2022-12-31T09:24:46.746Z,989.05
2022-12-31T09:25:48.477Z,989.13
2022-12-31T09:26:50.252Z,989.19
2022-12-31T09:27:51.935Z,989.09
2022-12-31T09:28:53.698Z,989.08
2022-12-31T09:29:55.400Z,989.05
2022-12-31T09:30:57.171Z,989.13
2022-12-31T09:31:59.025Z,989.12
2022-12-31T09:33:01.533Z,989.17
2022-12-31T09:34:02.443Z,989.17
2022-12-31T09:35:04.126Z,989.21
2022-12-31T09:36:05.797Z,989.2
2022-12-31T09:37:12.093Z,989.22
2022-12-31T09:38:14.450Z,989.32
2022-12-31T09:39:16.229Z,989.33
2022-12-31T09:40:17.952Z,989.23
2022-12-31T09:41:19.671Z,989.31
2022-12-31T09:42:21.426Z,989.27
2022-12-31T09:43:23.151Z,989.23
2022-12-31T09:44:24.886Z,989.22
2022-12-31T09:45:26.876Z,989.18
2022-12-31T09:46:28.313Z,989.21
2022-12-31T09:47:30.071Z,989.26
2022-12-31T09:48:31.801Z,989.27
2022-12-31T09:49:33.566Z,989.31
2022-12-31T09:50:35.249Z,989.26
2022-12-31T09:51:37.049Z,989.27
2022-12-31T09:52:38.732Z,989.28
2022-12-31T09:53:40.459Z,989.29
2022-12-31T09:54:42.193Z,989.29
2022-12-31T09:55:43.933Z,989.32
2022-12-31T09:56:45.698Z,989.32
2022-12-31T09:57:47.391Z,989.32
2022-12-31T09:58:49.176Z,989.33
2022-12-31T09:59:50.870Z,989.39
2022-12-31T10:00:52.977Z,989.31
2022-12-31T10:01:54.508Z,989.28
2022-12-31T10:02:56.114Z,989.31
2022-12-31T10:03:57.821Z,989.25
2022-12-31T10:04:59.525Z,989.25
2022-12-31T10:06:01.271Z,989.31
2022-12-31T10:07:03.023Z,989.33
2022-12-31T10:08:04.762Z,989.35
2022-12-31T10:09:06.487Z,989.36
2022-12-31T10:10:08.196Z,989.4
2022-12-31T10:11:09.927Z,989.36
2022-12-31T10:12:11.718Z,989.33
2022-12-31T10:13:13.423Z,989.43
2022-12-31T10:14:15.138Z,989.43
2022-12-31T10:15:16.916Z,989.34
2022-12-31T10:16:18.665Z,989.39
2022-12-31T10:17:20.348Z,989.37
2022-12-31T10:18:22.081Z,989.3
2022-12-31T10:19:23.785Z,989.42
2022-12-31T10:20:25.535Z,989.38
2022-12-31T10:21:27.292Z,989.35
2022-12-31T10:22:29.003Z,989.34
2022-12-31T10:23:30.733Z,989.34
2022-12-31T10:24:32.484Z,989.33
2022-12-31T10:25:38.597Z,989.28
2022-12-31T10:26:35.941Z,989.3
2022-12-31T10:27:37.670Z,989.31
2022-12-31T10:28:39.401Z,989.35
2022-12-31T10:29:41.144Z,989.31
2022-12-31T10:30:42.938Z,989.35
2022-12-31T10:31:44.635Z,989.28
2022-12-31T10:32:46.360Z,989.33
2022-12-31T10:33:48.115Z,989.33
2022-12-31T10:34:49.804Z,989.35
2022-12-31T10:35:51.587Z,989.38
2022-12-31T10:36:53.307Z,989.36
2022-12-31T10:37:55.050Z,989.35
2022-12-31T10:38:56.744Z,989.34
2022-12-31T10:39:58.485Z,989.35
2022-12-31T10:41:00.222Z,989.29
2022-12-31T10:42:01.942Z,989.3
2022-12-31T10:43:03.673Z,989.28
2022-12-31T10:44:05.496Z,989.23
2022-12-31T10:45:07.167Z,989.28
2022-12-31T10:46:08.933Z,989.34
2022-12-31T10:47:10.620Z,989.31
2022-12-31T10:48:12.324Z,989.33
2022-12-31T10:49:14.058Z,989.33
2022-12-31T10:50:15.821Z,989.4
2022-12-31T10:51:17.510Z,989.31
2022-12-31T10:52:19.279Z,989.33
2022-12-31T10:53:20.983Z,989.36
2022-12-31T10:54:22.723Z,989.38
2022-12-31T10:55:24.488Z,989.45
2022-12-31T10:56:26.224Z,989.46
2022-12-31T10:57:27.931Z,989.39
2022-12-31T10:58:29.673Z,989.4
2022-12-31T10:59:31.395Z,989.34
2022-12-31T11:00:33.181Z,989.33
2022-12-31T11:01:34.973Z,989.36
2022-12-31T11:02:36.894Z,989.38
2022-12-31T11:03:38.423Z,989.37
2022-12-31T11:04:40.393Z,989.34
2022-12-31T11:05:41.797Z,989.41
2022-12-31T11:06:43.539Z,989.34
2022-12-31T11:07:45.290Z,989.37
2022-12-31T11:08:47.014Z,989.49
2022-12-31T11:09:48.746Z,989.47
2022-12-31T11:10:50.479Z,989.47
2022-12-31T11:11:52.212Z,989.51
2022-12-31T11:12:53.953Z,989.42
2022-12-31T11:13:55.677Z,989.45
2022-12-31T11:14:57.385Z,989.38
2022-12-31T11:15:59.175Z,989.39
2022-12-31T11:17:00.880Z,989.36
2022-12-31T11:18:02.596Z,989.4
2022-12-31T11:19:04.354Z,989.39
2022-12-31T11:20:06.087Z,989.39
2022-12-31T11:21:07.803Z,989.43
2022-12-31T11:22:09.540Z,989.37
2022-12-31T11:23:11.293Z,989.36
2022-12-31T11:24:13.000Z,989.38
2022-12-31T11:25:14.736Z,989.36
2022-12-31T11:26:16.466Z,989.37
2022-12-31T11:27:18.205Z,989.45
2022-12-31T11:28:19.943Z,989.46
2022-12-31T11:29:21.655Z,989.5
2022-12-31T11:30:23.497Z,989.48
2022-12-31T11:31:25.218Z,989.49
2022-12-31T11:32:26.906Z,989.47
2022-12-31T11:33:28.619Z,989.47
2022-12-31T11:34:30.343Z,989.47
2022-12-31T11:35:32.101Z,989.44
2022-12-31T11:36:33.805Z,989.4
2022-12-31T11:37:35.573Z,989.4
2022-12-31T11:38:37.270Z,989.37
2022-12-31T11:39:39.026Z,989.37
2022-12-31T11:40:40.769Z,989.27
2022-12-31T11:41:42.510Z,989.38
2022-12-31T11:42:44.204Z,989.3
2022-12-31T11:43:45.997Z,989.3
2022-12-31T11:44:47.675Z,989.36
2022-12-31T11:45:50.831Z,989.36
2022-12-31T11:46:51.254Z,989.27
2022-12-31T11:48:28.584Z,989.34
2022-12-31T11:48:54.608Z,989.24
2022-12-31T11:49:56.352Z,989.24
2022-12-31T11:50:58.089Z,989.26
2022-12-31T11:51:59.826Z,989.35
2022-12-31T11:53:01.543Z,989.33
2022-12-31T11:54:03.281Z,989.4
2022-12-31T11:55:05.017Z,989.46
2022-12-31T11:56:06.751Z,989.36
2022-12-31T11:57:08.509Z,989.39
2022-12-31T11:58:10.213Z,989.33
2022-12-31T11:59:18.603Z,989.33
2022-12-31T12:00:13.815Z,989.32
2022-12-31T12:01:15.463Z,989.29
2022-12-31T12:02:17.274Z,989.29
2022-12-31T12:03:18.909Z,989.34
2022-12-31T12:04:20.650Z,989.39
2022-12-31T12:05:22.393Z,989.44
2022-12-31T12:06:24.142Z,989.39
2022-12-31T12:07:25.861Z,989.39
2022-12-31T12:08:27.609Z,989.34
2022-12-31T12:09:29.312Z,989.38
2022-12-31T12:10:36.245Z,989.34
2022-12-31T12:11:32.752Z,989.4
2022-12-31T12:12:34.494Z,989.36
2022-12-31T12:13:36.271Z,989.34
2022-12-31T12:14:37.993Z,989.28
2022-12-31T12:15:39.721Z,989.3
2022-12-31T12:16:41.543Z,989.27
2022-12-31T12:17:43.173Z,989.17
2022-12-31T12:18:44.932Z,989.23
2022-12-31T12:19:46.628Z,989.16
2022-12-31T12:20:48.396Z,989.2
2022-12-31T12:21:50.128Z,989.22
2022-12-31T12:22:51.862Z,989.2
2022-12-31T12:23:53.579Z,989.27
2022-12-31T12:24:55.302Z,989.21
2022-12-31T12:25:57.105Z,989.21
2022-12-31T12:26:58.784Z,989.2
2022-12-31T12:28:00.501Z,989.23
2022-12-31T12:29:02.244Z,989.21
2022-12-31T12:30:03.977Z,989.15
2022-12-31T12:31:05.774Z,989.11
2022-12-31T12:32:08.499Z,989.15
2022-12-31T12:33:09.252Z,989.17
2022-12-31T12:34:10.930Z,989.13
2022-12-31T12:35:12.655Z,989.15
2022-12-31T12:36:14.370Z,989.18
2022-12-31T12:37:16.110Z,989.19
2022-12-31T12:38:17.838Z,989.25
2022-12-31T12:39:19.564Z,989.14
2022-12-31T12:40:21.346Z,989.2
2022-12-31T12:41:23.040Z,989.19
2022-12-31T12:42:24.780Z,989.14
2022-12-31T12:43:26.579Z,989.21
2022-12-31T12:44:28.253Z,989.16
2022-12-31T12:45:30.039Z,989.12
2022-12-31T12:46:31.739Z,989.16
2022-12-31T12:47:33.445Z,989.13
2022-12-31T12:48:35.172Z,989.12
2022-12-31T12:49:36.917Z,989.05
2022-12-31T12:50:38.638Z,989.06
2022-12-31T12:51:40.383Z,989.19
2022-12-31T12:52:42.132Z,989.07
2022-12-31T12:53:43.848Z,989.09
2022-12-31T12:54:45.586Z,989.16
2022-12-31T12:55:47.342Z,989.1